Time;durP1;ratioP1;P1;durP2;ratioP2;P2;SDS_P1;SDS_P2;PMS_P1;PMS_P2;Temp;Humidity;BMP_temperature;BMP_pressure;BME280_temperature;BME280_humidity;BME280_pressure;Samples;Min_cycle;Max_cycle;Signal;HPM_P1;HPM_P2
2022/08/06 00:02:23;;;;;;;1.25;0.50;;;16.50;78.40;;;;;;4960470;28;20113;-74
2022/08/06 00:04:52;;;;;;;5.80;0.90;;;16.60;77.80;;;;;;4960902;28;20081;-73
2022/08/06 00:07:20;;;;;;;1.85;0.60;;;16.70;78.20;;;;;;4961161;28;20480;-73
2022/08/06 00:09:47;;;;;;;2.72;0.85;;;16.70;77.20;;;;;;4972163;28;20030;-73
2022/08/06 00:12:15;;;;;;;1.27;0.60;;;16.80;76.60;;;;;;4979842;28;20039;-74
2022/08/06 00:14:43;;;;;;;1.75;1.08;;;16.70;76.40;;;;;;4979536;28;20522;-71
2022/08/06 00:17:10;;;;;;;2.42;0.82;;;16.80;76.60;;;;;;4981410;28;20023;-73
2022/08/06 00:19:37;;;;;;;2.00;0.65;;;16.90;76.00;;;;;;4978986;28;20101;-73
2022/08/06 00:22:05;;;;;;;2.42;0.70;;;16.90;75.80;;;;;;4982099;28;20494;-72
2022/08/06 00:24:32;;;;;;;2.65;0.57;;;16.90;75.60;;;;;;4979984;28;20025;-73
2022/08/06 00:26:59;;;;;;;1.40;0.73;;;16.90;74.90;;;;;;4981002;28;20028;-73
2022/08/06 00:29:27;;;;;;;1.65;0.82;;;16.90;75.50;;;;;;4979520;28;20423;-72
2022/08/06 00:31:54;;;;;;;1.63;0.50;;;17.00;75.70;;;;;;4980112;28;20050;-72
2022/08/06 00:34:21;;;;;;;1.83;0.50;;;17.20;74.60;;;;;;4980715;28;20026;-72
2022/08/06 00:36:49;;;;;;;1.80;0.60;;;17.20;74.40;;;;;;4979221;28;20497;-73
2022/08/06 00:39:16;;;;;;;2.38;0.40;;;17.20;74.10;;;;;;4981491;28;20030;-72
2022/08/06 00:41:43;;;;;;;1.63;0.40;;;17.30;73.80;;;;;;4977909;28;20041;-72
2022/08/06 00:44:11;;;;;;;2.30;0.50;;;17.40;72.90;;;;;;4980909;28;20379;-74
2022/08/06 00:46:38;;;;;;;2.22;0.50;;;17.40;72.00;;;;;;4979216;28;20549;-73
2022/08/06 00:49:06;;;;;;;1.13;0.40;;;17.40;72.40;;;;;;4980688;28;20037;-73
2022/08/06 00:51:34;;;;;;;1.23;0.40;;;17.50;72.00;;;;;;4978259;28;20500;-74
2022/08/06 00:54:02;;;;;;;2.58;0.50;;;17.50;72.40;;;;;;4979625;28;20030;-78
2022/08/06 00:56:29;;;;;;;2.28;0.60;;;17.60;72.00;;;;;;4977829;28;20042;-70
2022/08/06 00:58:57;;;;;;;2.38;0.47;;;17.70;73.10;;;;;;4979983;28;20054;-72
2022/08/06 01:01:24;;;;;;;1.20;0.65;;;17.80;72.00;;;;;;4980128;28;20030;-71
2022/08/06 01:03:51;;;;;;;1.98;0.70;;;17.80;71.30;;;;;;4978320;28;20403;-72
2022/08/06 01:06:23;;;;;;;2.47;0.50;;;17.90;71.50;;;;;;4980176;28;20030;-77
2022/08/06 01:08:50;;;;;;;1.23;0.50;;;18.00;71.10;;;;;;4978414;28;20018;-71
2022/08/06 01:11:17;;;;;;;1.83;0.40;;;18.10;70.00;;;;;;4980007;28;20053;-70
2022/08/06 01:13:45;;;;;;;1.05;0.38;;;18.20;69.90;;;;;;4978014;28;20029;-70
2022/08/06 01:16:29;;;;;;;1.83;0.57;;;18.20;69.80;;;;;;4979909;28;20044;-70
2022/08/06 01:19:18;;;;;;;2.47;1.23;;;18.20;69.90;;;;;;4979310;28;20022;-69
2022/08/06 01:22:09;;;;;;;1.85;0.55;;;18.40;69.30;;;;;;4978203;28;20030;-70
2022/08/06 01:25:03;;;;;;;2.30;0.60;;;18.50;67.80;;;;;;4977789;28;20049;-70
2022/08/06 01:27:37;;;;;;;0.82;0.40;;;18.70;68.80;;;;;;4978178;28;20388;-70
2022/08/06 01:30:15;;;;;;;1.63;0.47;;;18.90;68.80;;;;;;4978117;28;20026;-70
2022/08/06 01:33:07;;;;;;;2.25;0.60;;;18.90;67.40;;;;;;4976966;28;20125;-70
2022/08/06 01:35:41;;;;;;;1.30;0.47;;;18.90;67.80;;;;;;4977045;28;20102;-68
2022/08/06 01:38:30;;;;;;;0.73;0.40;;;18.80;66.20;;;;;;4977317;28;20421;-69
2022/08/06 01:41:02;;;;;;;1.10;0.50;;;18.80;65.60;;;;;;4976010;28;20102;-68
2022/08/06 01:43:32;;;;;;;2.60;0.85;;;18.80;65.70;;;;;;4976953;28;20074;-69
2022/08/06 01:46:01;;;;;;;0.50;0.40;;;18.80;64.20;;;;;;4975799;28;20109;-69
2022/08/06 01:48:30;;;;;;;2.58;0.43;;;19.00;65.00;;;;;;4979572;28;20037;-69
2022/08/06 01:51:01;;;;;;;1.05;0.45;;;19.00;64.00;;;;;;4976962;28;20037;-69
2022/08/06 01:53:36;;;;;;;0.75;0.45;;;18.90;64.30;;;;;;4979491;28;20038;-68
2022/08/06 01:56:07;;;;;;;1.48;0.80;;;18.90;64.40;;;;;;4977502;28;20026;-70
2022/08/06 01:58:39;;;;;;;1.65;0.47;;;19.10;65.10;;;;;;4979814;28;20376;-71
2022/08/06 02:01:13;;;;;;;4.68;0.70;;;19.20;65.20;;;;;;4977373;28;20440;-71
2022/08/06 02:03:50;;;;;;;0.82;0.40;;;19.60;66.10;;;;;;4978861;28;20026;-71
2022/08/06 02:06:35;;;;;;;1.50;0.50;;;19.80;65.40;;;;;;4976359;28;20034;-71
2022/08/06 02:09:13;;;;;;;1.13;0.50;;;19.90;64.40;;;;;;4976624;28;20018;-71
2022/08/06 02:11:43;;;;;;;2.50;0.55;;;19.80;65.60;;;;;;4978739;28;20026;-70
2022/08/06 02:14:13;;;;;;;2.00;0.43;;;19.80;65.40;;;;;;4976117;28;20092;-71
2022/08/06 02:16:43;;;;;;;1.58;0.40;;;19.50;65.40;;;;;;4976773;28;20029;-71
2022/08/06 02:19:13;;;;;;;0.88;0.50;;;19.30;65.20;;;;;;4975671;28;20034;-71
2022/08/06 02:21:44;;;;;;;2.33;0.60;;;19.10;66.30;;;;;;4979112;28;20041;-69
2022/08/06 02:24:11;;;;;;;3.33;0.65;;;19.20;66.10;;;;;;4976912;28;20181;-72
2022/08/06 02:26:42;;;;;;;2.38;0.60;;;19.20;65.70;;;;;;4979086;28;20033;-70
2022/08/06 02:29:14;;;;;;;1.77;0.43;;;19.20;66.30;;;;;;4975629;28;20033;-71
2022/08/06 02:31:44;;;;;;;1.13;0.40;;;19.20;66.10;;;;;;4978918;28;20029;-72
2022/08/06 02:34:11;;;;;;;0.77;0.30;;;19.40;66.00;;;;;;4976911;28;20041;-72
2022/08/06 02:36:52;;;;;;;2.08;0.43;;;19.80;65.40;;;;;;4977422;28;20505;-71
2022/08/06 02:39:45;;;;;;;1.02;0.40;;;20.20;64.80;;;;;;4976316;28;20027;-70
2022/08/06 02:42:20;;;;;;;;;;;20.60;63.40;;;;;;4978699;28;20034;-71
2022/08/06 02:44:58;;;;;;;1.00;0.40;;;20.60;62.40;;;;;;4977899;28;20378;-68
2022/08/06 02:47:48;;;;;;;1.58;0.50;;;20.30;63.10;;;;;;4974909;28;20383;-70
2022/08/06 02:50:19;;;;;;;0.60;0.40;;;20.20;62.80;;;;;;4977274;28;20030;-71
2022/08/06 02:53:06;;;;;;;2.22;0.50;;;20.80;62.90;;;;;;4978704;28;20416;-71
2022/08/06 02:55:38;;;;;;;2.05;0.50;;;21.40;62.20;;;;;;4975248;28;20034;-71
2022/08/06 02:58:36;;;;;;;2.80;0.50;;;21.60;61.80;;;;;;4977715;28;20072;-72
2022/08/06 03:01:10;;;;;;;1.55;0.50;;;21.80;61.10;;;;;;4982768;28;20053;-69
2022/08/06 03:03:40;;;;;;;1.15;0.35;;;22.40;60.80;;;;;;4976115;28;20023;-71
2022/08/06 03:06:09;;;;;;;1.27;0.40;;;22.70;59.90;;;;;;4978502;28;20029;-70
2022/08/06 03:08:36;;;;;;;0.88;0.30;;;22.80;59.40;;;;;;4977109;28;20731;-71
2022/08/06 03:11:06;;;;;;;1.20;0.40;;;22.60;59.90;;;;;;4976658;28;20034;-69
2022/08/06 03:13:34;;;;;;;2.20;0.50;;;21.90;59.40;;;;;;4978503;28;20028;-71
2022/08/06 03:16:04;;;;;;;0.43;0.40;;;21.40;61.20;;;;;;4975667;28;20081;-71
2022/08/06 03:18:32;;;;;;;2.60;0.40;;;21.20;61.60;;;;;;4977445;28;20019;-71
2022/08/06 03:21:02;;;;;;;1.65;0.40;;;21.70;61.10;;;;;;4975867;28;20118;-70
2022/08/06 03:23:31;;;;;;;3.20;0.43;;;22.10;59.90;;;;;;4967206;28;20035;-70
2022/08/06 03:26:00;;;;;;;3.50;0.43;;;22.30;60.00;;;;;;4976080;28;20052;-69
2022/08/06 03:28:28;;;;;;;2.10;0.50;;;21.90;59.40;;;;;;4978302;28;20030;-70
2022/08/06 03:30:57;;;;;;;0.30;0.30;;;21.40;60.90;;;;;;4976108;28;20431;-70
2022/08/06 03:33:25;;;;;;;1.45;0.40;;;21.00;61.40;;;;;;4977894;28;20022;-70
2022/08/06 03:35:55;;;;;;;1.92;0.40;;;21.30;62.70;;;;;;4976984;28;20062;-69
2022/08/06 03:38:25;;;;;;;2.10;0.40;;;21.40;61.70;;;;;;4978567;28;20102;-69
2022/08/06 03:40:53;;;;;;;2.67;0.63;;;21.50;61.30;;;;;;4976624;28;20030;-71
2022/08/06 03:43:20;;;;;;;2.05;0.45;;;21.30;62.60;;;;;;4978538;28;20133;-70
2022/08/06 03:45:56;;;;;;;0.40;0.30;;;20.90;62.10;;;;;;4977354;28;20097;-69
2022/08/06 03:48:28;;;;;;;1.13;0.40;;;20.60;62.10;;;;;;4981956;28;20026;-71
2022/08/06 03:50:57;;;;;;;3.63;0.45;;;21.00;61.30;;;;;;4980481;28;20029;-71
2022/08/06 03:53:27;;;;;;;4.28;0.50;;;21.70;60.40;;;;;;4980341;28;20065;-71
2022/08/06 03:56:00;;;;;;;1.50;0.40;;;22.90;58.90;;;;;;4979146;28;20019;-71
2022/08/06 03:58:30;;;;;;;1.75;0.30;;;23.50;56.00;;;;;;4979876;28;20456;-70
2022/08/06 04:01:02;;;;;;;2.15;0.50;;;23.70;55.60;;;;;;4978126;28;20398;-71
2022/08/06 04:03:29;;;;;;;0.82;0.40;;;23.00;55.80;;;;;;4981325;28;20476;-72
2022/08/06 04:05:58;;;;;;;1.42;0.40;;;22.10;56.20;;;;;;4978172;28;20038;-72
2022/08/06 04:08:26;;;;;;;2.72;0.40;;;21.40;57.90;;;;;;4981149;28;20150;-69
2022/08/06 04:10:54;;;;;;;0.93;0.35;;;21.20;59.20;;;;;;4980851;28;20101;-72
2022/08/06 04:13:23;;;;;;;1.30;0.40;;;22.00;57.60;;;;;;4979724;28;20038;-72
2022/08/06 04:15:52;;;;;;;1.52;0.30;;;22.80;56.40;;;;;;4979996;28;20023;-70
2022/08/06 04:18:23;;;;;;;1.48;0.35;;;23.50;56.30;;;;;;4976259;28;20030;-71
2022/08/06 04:20:54;;;;;;;1.13;0.30;;;24.30;54.60;;;;;;4972881;28;20042;-70
2022/08/06 04:23:21;;;;;;;0.98;0.40;;;24.50;54.70;;;;;;4977742;28;20030;-72
2022/08/06 04:25:55;;;;;;;1.25;0.40;;;24.60;54.90;;;;;;4978627;28;20028;-72
2022/08/06 04:28:25;;;;;;;4.13;0.30;;;23.90;54.60;;;;;;4979444;28;20018;-70
2022/08/06 04:30:53;;;;;;;0.90;0.40;;;23.60;55.10;;;;;;4980536;28;20026;-73
2022/08/06 04:33:22;;;;;;;0.75;0.38;;;23.80;55.20;;;;;;4979782;28;20053;-71
2022/08/06 04:35:50;;;;;;;1.88;0.40;;;24.10;54.50;;;;;;4979882;28;20030;-74
2022/08/06 04:38:23;;;;;;;1.20;0.40;;;24.50;54.90;;;;;;4969745;28;20065;-72
2022/08/06 04:40:52;;;;;;;1.27;0.40;;;24.70;54.20;;;;;;4977724;28;20105;-73
2022/08/06 04:43:20;;;;;;;1.33;0.30;;;24.60;53.80;;;;;;4978057;28;20638;-71
2022/08/06 04:45:49;;;;;;;0.90;0.40;;;24.30;54.20;;;;;;4993197;28;20108;-72
2022/08/06 04:48:17;;;;;;;1.52;0.45;;;23.90;55.20;;;;;;4977028;28;20068;-73
2022/08/06 04:50:45;;;;;;;1.48;0.40;;;24.00;55.60;;;;;;4979466;28;20093;-73
2022/08/06 04:53:15;;;;;;;2.78;0.40;;;24.10;55.30;;;;;;4977812;28;20026;-70
2022/08/06 04:55:44;;;;;;;1.08;0.50;;;24.00;54.90;;;;;;4979152;28;20022;-72
2022/08/06 04:58:13;;;;;;;1.42;0.40;;;23.60;54.70;;;;;;4975849;28;20066;-69
2022/08/06 05:00:45;;;;;;;1.17;0.40;;;23.00;55.60;;;;;;4979561;28;20027;-72
2022/08/06 05:03:13;;;;;;;1.88;0.50;;;22.60;56.90;;;;;;4978660;28;20388;-71
2022/08/06 05:06:12;;;;;;;1.80;0.60;;;22.30;57.60;;;;;;4980033;28;20030;-70
2022/08/06 05:08:43;;;;;;;1.65;0.30;;;22.20;58.00;;;;;;4975833;28;20034;-72
2022/08/06 05:11:28;;;;;;;1.10;0.50;;;22.10;56.70;;;;;;4975279;28;20446;-71
2022/08/06 05:14:00;;;;;;;1.65;0.32;;;22.00;57.00;;;;;;4976263;28;20033;-70
2022/08/06 05:16:31;;;;;;;1.63;0.30;;;22.10;56.90;;;;;;4975142;28;20134;-76
2022/08/06 05:19:02;;;;;;;2.05;0.30;;;22.20;57.30;;;;;;4976933;28;20084;-70
2022/08/06 05:21:35;;;;;;;1.60;0.80;;;22.30;56.70;;;;;;4976364;28;20042;-74
2022/08/06 05:24:04;;;;;;;2.40;0.40;;;22.60;55.60;;;;;;4978007;28;20026;-72
2022/08/06 05:26:35;;;;;;;2.42;0.40;;;22.70;56.00;;;;;;4978198;28;20026;-70
2022/08/06 05:29:02;;;;;;;1.60;0.43;;;23.00;55.30;;;;;;4974229;28;20085;-73
2022/08/06 05:31:39;;;;;;;0.43;0.30;;;23.30;55.70;;;;;;4976398;28;20041;-73
2022/08/06 05:34:11;;;;;;;2.60;0.57;;;23.10;54.60;;;;;;4978147;28;20041;-72
2022/08/06 05:36:38;;;;;;;0.77;0.35;;;22.90;55.60;;;;;;4977887;28;20570;-70
2022/08/06 05:39:06;;;;;;;1.40;0.40;;;22.60;55.70;;;;;;4977996;28;20523;-71
2022/08/06 05:41:37;;;;;;;1.58;0.45;;;22.30;55.40;;;;;;4977227;28;20041;-70
2022/08/06 05:44:07;;;;;;;2.10;0.30;;;22.00;56.40;;;;;;4978520;28;20022;-72
2022/08/06 05:46:48;;;;;;;1.42;0.47;;;21.90;56.30;;;;;;4976762;28;20032;-71
2022/08/06 05:49:32;;;;;;;1.02;0.40;;;21.80;56.20;;;;;;4970368;28;20028;-73
2022/08/06 05:52:26;;;;;;;1.33;0.47;;;21.70;56.70;;;;;;4977540;28;20062;-71
2022/08/06 05:55:29;;;;;;;0.70;0.40;;;21.60;56.60;;;;;;4978099;28;20042;-73
2022/08/06 05:58:03;;;;;;;0.80;0.40;;;21.70;57.00;;;;;;4977678;28;20058;-74
2022/08/06 06:00:33;;;;;;;3.00;0.55;;;21.80;57.70;;;;;;4973380;28;20042;-74
2022/08/06 06:03:05;;;;;;;1.92;0.50;;;21.80;56.50;;;;;;4977770;28;20023;-72
2022/08/06 06:05:36;;;;;;;0.33;0.30;;;21.80;56.80;;;;;;4977184;28;20654;-72
2022/08/06 06:08:06;;;;;;;0.85;0.40;;;22.00;57.30;;;;;;4977423;28;20260;-71
2022/08/06 06:10:34;;;;;;;1.52;0.40;;;22.40;56.00;;;;;;4977364;28;20399;-73
2022/08/06 06:13:04;;;;;;;1.83;0.50;;;22.80;56.10;;;;;;4978206;28;20041;-73
2022/08/06 06:15:38;;;;;;;1.08;0.55;;;23.50;55.40;;;;;;4977434;28;20045;-70
2022/08/06 06:18:45;;;;;;;1.45;0.30;;;24.10;54.20;;;;;;4977098;28;20057;-72
2022/08/06 06:21:29;;;;;;;0.75;0.30;;;24.40;54.40;;;;;;4982997;28;20073;-70
2022/08/06 06:24:26;;;;;;;2.50;0.30;;;24.80;53.90;;;;;;4977222;28;20498;-70
2022/08/06 06:27:15;;;;;;;1.13;0.50;;;24.60;52.90;;;;;;4976446;28;20026;-70
2022/08/06 06:29:57;;;;;;;1.23;0.30;;;24.30;53.20;;;;;;4976558;28;20050;-70
2022/08/06 06:32:53;;;;;;;0.82;0.30;;;23.60;53.50;;;;;;4977566;28;20027;-71
2022/08/06 06:35:33;;;;;;;1.98;0.40;;;22.80;54.20;;;;;;4977956;28;20907;-70
2022/08/06 06:38:07;;;;;;;2.25;1.65;;;21.90;55.80;;;;;;4976488;28;20113;-70
2022/08/06 06:40:44;;;;;;;1.75;0.50;;;21.30;56.70;;;;;;4977145;28;20026;-69
2022/08/06 06:43:21;;;;;;;1.23;0.50;;;21.00;57.90;;;;;;4977057;28;20026;-71
2022/08/06 06:45:56;;;;;;;3.25;0.57;;;20.60;58.00;;;;;;4977597;28;20027;-71
2022/08/06 06:48:37;;;;;;;1.27;0.55;;;20.30;59.00;;;;;;4972445;28;20030;-70
2022/08/06 06:51:13;;;;;;;1.17;0.50;;;20.00;59.20;;;;;;4968631;28;20027;-72
2022/08/06 06:53:49;;;;;;;1.75;0.80;;;19.70;59.30;;;;;;4975047;28;20054;-70
2022/08/06 06:56:20;;;;;;;1.20;0.85;;;19.40;60.00;;;;;;4977145;28;20066;-73
2022/08/06 06:59:02;;;;;;;1.95;0.50;;;19.20;60.50;;;;;;4977024;28;20029;-69
2022/08/06 07:01:32;;;;;;;1.92;0.60;;;19.00;61.40;;;;;;4976753;28;20078;-72
2022/08/06 07:04:02;;;;;;;0.93;0.40;;;18.80;61.40;;;;;;4975256;28;20071;-71
2022/08/06 07:06:31;;;;;;;2.10;0.70;;;18.60;61.70;;;;;;4976049;28;20018;-69
2022/08/06 07:09:00;;;;;;;2.30;0.60;;;18.50;62.10;;;;;;4973546;28;20027;-70
2022/08/06 07:11:31;;;;;;;2.85;0.80;;;18.40;62.40;;;;;;4976432;28;20026;-73
2022/08/06 07:14:00;;;;;;;1.52;0.60;;;18.30;62.90;;;;;;4977217;28;20498;-71
2022/08/06 07:16:31;;;;;;;2.75;0.85;;;18.20;63.00;;;;;;4977233;28;20030;-70
2022/08/06 07:19:02;;;;;;;1.52;0.60;;;18.10;63.40;;;;;;4975234;28;21219;-70
2022/08/06 07:21:30;;;;;;;1.27;0.70;;;18.00;63.70;;;;;;4977325;28;20038;-70
2022/08/06 07:23:58;;;;;;;2.80;0.65;;;18.00;64.40;;;;;;4980459;28;20075;-73
2022/08/06 07:26:28;;;;;;;1.02;0.70;;;17.90;64.60;;;;;;4981437;28;20026;-72
2022/08/06 07:28:56;;;;;;;2.72;0.90;;;17.80;64.40;;;;;;4980223;28;20019;-74
2022/08/06 07:31:28;;;;;;;2.03;0.90;;;17.70;64.70;;;;;;4981763;28;20037;-71
2022/08/06 07:33:56;;;;;;;0.87;0.50;;;17.70;65.40;;;;;;4981387;28;20031;-72
2022/08/06 07:36:26;;;;;;;1.10;0.60;;;17.60;66.00;;;;;;4981622;28;20069;-69
2022/08/06 07:39:00;;;;;;;1.65;0.68;;;17.50;66.70;;;;;;4980433;28;20456;-73
2022/08/06 07:41:28;;;;;;;1.55;0.88;;;17.40;66.30;;;;;;4981150;28;20034;-68
2022/08/06 07:43:58;;;;;;;1.70;0.70;;;17.30;66.00;;;;;;4980780;28;20325;-71
2022/08/06 07:46:40;;;;;;;2.05;0.73;;;17.30;66.50;;;;;;4980351;28;20037;-72
2022/08/06 07:49:09;;;;;;;1.27;0.90;;;17.20;66.30;;;;;;4979386;28;20101;-71
2022/08/06 07:51:40;;;;;;;1.98;1.13;;;17.20;66.60;;;;;;4979495;28;20418;-71
2022/08/06 07:54:09;;;;;;;2.60;1.02;;;17.20;66.80;;;;;;4974068;28;20025;-72
2022/08/06 07:56:42;;;;;;;2.80;1.00;;;17.20;67.00;;;;;;4980155;28;20114;-70
2022/08/06 07:59:10;;;;;;;2.25;0.88;;;17.20;67.00;;;;;;4990828;28;20026;-71
2022/08/06 08:01:39;;;;;;;2.50;0.82;;;17.10;66.90;;;;;;4979882;28;20085;-72
2022/08/06 08:06:55;;;;;;;3.25;0.80;;;17.00;67.30;;;;;;4976552;28;20037;-73
2022/08/06 08:09:24;;;;;;;2.10;0.88;;;17.00;67.90;;;;;;4978778;28;20087;-73
2022/08/06 08:11:52;;;;;;;1.38;0.52;;;17.00;67.70;;;;;;4973091;28;20027;-73
2022/08/06 08:14:21;;;;;;;1.50;0.82;;;17.00;67.60;;;;;;4990138;28;20019;-72
2022/08/06 08:16:50;;;;;;;1.30;0.70;;;17.00;67.70;;;;;;4980336;28;20022;-70
2022/08/06 08:19:33;;;;;;;1.77;0.73;;;17.00;67.90;;;;;;4993125;28;20057;-72
2022/08/06 08:22:13;;;;;;;1.08;0.88;;;17.00;68.00;;;;;;4978681;28;20439;-69
2022/08/06 08:24:42;;;;;;;2.13;0.80;;;16.90;68.00;;;;;;4979673;28;20022;-72
2022/08/06 08:27:10;;;;;;;3.30;0.85;;;16.90;68.00;;;;;;4992336;28;20160;-68
2022/08/06 08:29:39;;;;;;;3.17;0.80;;;16.90;68.50;;;;;;4979899;28;20034;-72
2022/08/06 08:32:08;;;;;;;2.40;0.85;;;16.90;68.60;;;;;;4979445;28;20054;-71
2022/08/06 08:34:36;;;;;;;3.30;0.80;;;16.80;68.80;;;;;;4972555;28;20026;-71
2022/08/06 08:37:04;;;;;;;1.80;0.90;;;16.80;68.80;;;;;;4978210;28;20034;-71
2022/08/06 08:39:31;;;;;;;3.40;1.40;;;16.70;68.90;;;;;;4978359;28;20038;-73
2022/08/06 08:42:09;;;;;;;2.80;1.55;;;16.60;69.30;;;;;;4979416;28;20035;-70
2022/08/06 08:44:38;;;;;;;2.80;1.25;;;16.60;69.50;;;;;;4978081;28;20021;-72
2022/08/06 08:47:09;;;;;;;3.45;1.30;;;16.60;69.90;;;;;;4979657;28;20027;-74
2022/08/06 08:49:40;;;;;;;2.88;1.52;;;16.50;69.90;;;;;;4978592;28;20023;-72
2022/08/06 08:52:27;;;;;;;3.05;1.20;;;16.40;70.00;;;;;;4979094;28;20094;-74
2022/08/06 08:54:58;;;;;;;2.55;1.00;;;16.40;70.70;;;;;;4980709;28;20045;-72
2022/08/06 08:57:27;;;;;;;2.78;1.10;;;16.30;70.90;;;;;;4976883;28;20381;-72
2022/08/06 08:59:55;;;;;;;3.97;1.02;;;16.20;71.00;;;;;;4970827;28;20125;-74
2022/08/06 09:02:23;;;;;;;2.30;0.98;;;16.20;71.00;;;;;;4974442;28;20042;-72
2022/08/06 09:04:52;;;;;;;1.65;1.25;;;16.10;71.60;;;;;;4978176;28;20521;-71
2022/08/06 09:07:20;;;;;;;2.97;1.42;;;16.00;72.40;;;;;;4976629;28;20049;-73
2022/08/06 09:09:47;;;;;;;3.67;1.85;;;16.00;72.40;;;;;;4979312;28;20508;-73
2022/08/06 09:12:15;;;;;;;3.45;1.88;;;15.90;73.00;;;;;;4978535;28;20069;-73
2022/08/06 09:14:45;;;;;;;2.97;1.65;;;15.80;72.90;;;;;;4979392;28;20070;-71
2022/08/06 09:17:13;;;;;;;3.03;1.90;;;15.80;73.50;;;;;;4979104;28;20034;-71
2022/08/06 09:19:40;;;;;;;4.03;2.53;;;15.70;74.10;;;;;;4971244;28;20022;-71
2022/08/06 09:22:08;;;;;;;4.18;2.28;;;15.60;74.30;;;;;;4978652;28;20046;-69
2022/08/06 09:24:36;;;;;;;3.78;2.60;;;15.70;74.90;;;;;;4976796;28;20444;-70
2022/08/06 09:27:04;;;;;;;4.35;2.13;;;15.60;74.60;;;;;;4993422;28;20061;-70
2022/08/06 09:29:31;;;;;;;5.07;2.40;;;15.50;74.90;;;;;;4977670;28;20018;-70
2022/08/06 09:32:00;;;;;;;4.80;2.58;;;15.50;75.00;;;;;;4977156;28;20026;-72
2022/08/06 09:34:36;;;;;;;5.07;2.72;;;15.50;75.30;;;;;;4979228;28;20018;-73
2022/08/06 09:37:03;;;;;;;5.40;2.78;;;15.40;75.80;;;;;;4978638;28;20088;-70
2022/08/06 09:39:43;;;;;;;4.28;2.70;;;15.40;75.30;;;;;;4978188;28;20030;-71
2022/08/06 09:42:11;;;;;;;4.25;2.88;;;15.30;75.80;;;;;;4978324;28;20030;-69
2022/08/06 09:44:38;;;;;;;4.78;3.30;;;15.40;75.90;;;;;;4975186;28;20027;-71
2022/08/06 09:47:07;;;;;;;4.35;2.60;;;15.30;75.40;;;;;;4977520;28;20040;-72
2022/08/06 09:49:45;;;;;;;4.50;2.42;;;15.30;76.00;;;;;;4977850;28;20056;-72
2022/08/06 09:52:16;;;;;;;3.80;1.73;;;15.30;76.10;;;;;;4978143;28;20049;-71
2022/08/06 09:54:46;;;;;;;3.67;1.75;;;15.20;75.70;;;;;;4980096;28;20034;-69
2022/08/06 09:57:14;;;;;;;5.75;2.17;;;15.20;76.10;;;;;;4976832;28;20451;-72
2022/08/06 09:59:46;;;;;;;3.38;1.50;;;15.10;75.80;;;;;;4975244;28;20050;-71
2022/08/06 10:02:17;;;;;;;4.10;2.35;;;15.10;76.20;;;;;;4959759;28;20030;-73
2022/08/06 10:04:45;;;;;;;5.35;1.60;;;15.10;76.30;;;;;;4978137;28;20038;-72
2022/08/06 10:07:12;;;;;;;4.97;1.92;;;15.00;76.30;;;;;;4975696;28;20522;-72
2022/08/06 10:09:53;;;;;;;4.80;2.15;;;15.00;76.10;;;;;;4977544;28;20236;-69
2022/08/06 10:12:23;;;;;;;3.63;2.45;;;15.00;76.60;;;;;;4976455;28;20467;-72
2022/08/06 10:14:51;;;;;;;4.20;2.67;;;14.90;76.80;;;;;;4978247;28;20383;-71
2022/08/06 10:17:20;;;;;;;5.63;3.45;;;14.90;76.90;;;;;;4975388;28;20034;-69
2022/08/06 10:20:08;;;;;;;4.82;3.45;;;14.90;77.60;;;;;;4978362;28;20025;-72
2022/08/06 10:22:36;;;;;;;5.55;3.17;;;14.80;77.70;;;;;;4973222;28;20030;-72
2022/08/06 10:25:05;;;;;;;5.18;4.40;;;14.70;78.80;;;;;;4975837;28;20034;-72
2022/08/06 10:27:35;;;;;;;5.97;3.47;;;14.70;78.20;;;;;;4959695;28;20419;-72
2022/08/06 10:30:09;;;;;;;7.05;4.68;;;14.70;79.10;;;;;;4976295;28;20513;-71
2022/08/06 10:32:51;;;;;;;6.88;4.47;;;14.70;80.00;;;;;;4977712;28;20030;-69
2022/08/06 10:35:24;;;;;;;7.00;4.75;;;14.60;79.80;;;;;;4977014;28;20035;-71
2022/08/06 10:37:56;;;;;;;7.90;4.47;;;14.60;79.90;;;;;;4976945;28;20026;-71
2022/08/06 10:40:25;;;;;;;6.18;4.15;;;14.50;79.90;;;;;;4977707;28;20018;-71
2022/08/06 10:42:53;;;;;;;7.65;4.20;;;14.50;79.90;;;;;;4977370;28;20034;-70
2022/08/06 10:45:21;;;;;;;4.57;2.85;;;14.50;80.00;;;;;;4976104;28;20015;-74
2022/08/06 10:47:48;;;;;;;4.43;2.33;;;14.50;79.80;;;;;;4976923;28;20041;-71
2022/08/06 10:50:16;;;;;;;6.18;2.58;;;14.50;79.70;;;;;;4976685;28;20057;-72
2022/08/06 10:52:44;;;;;;;3.53;1.90;;;14.40;79.70;;;;;;4976284;28;20427;-72
2022/08/06 10:55:12;;;;;;;4.97;2.10;;;14.40;79.90;;;;;;4976451;28;20018;-71
2022/08/06 10:57:40;;;;;;;5.10;2.30;;;14.40;79.80;;;;;;4978844;28;20451;-70
2022/08/06 11:00:08;;;;;;;3.40;1.90;;;14.30;80.20;;;;;;4979713;28;20379;-69
2022/08/06 11:02:49;;;;;;;3.33;1.63;;;14.30;80.20;;;;;;4981054;28;20487;-70
2022/08/06 11:05:20;;;;;;;3.95;1.58;;;14.30;80.30;;;;;;4980905;28;20022;-73
2022/08/06 11:08:06;;;;;;;2.92;1.45;;;14.20;80.70;;;;;;4967569;28;20026;-71
2022/08/06 11:10:52;;;;;;;4.32;1.88;;;14.20;80.90;;;;;;4981072;28;20114;-71
2022/08/06 11:14:01;;;;;;;3.30;1.83;;;14.10;81.30;;;;;;4976109;28;20092;-71
2022/08/06 11:16:31;;;;;;;4.00;1.90;;;14.10;81.30;;;;;;4972616;28;20053;-68
2022/08/06 11:19:07;;;;;;;3.22;1.80;;;14.10;81.70;;;;;;4983453;28;20033;-69
2022/08/06 11:21:45;;;;;;;3.17;1.85;;;14.10;81.80;;;;;;4991196;28;20035;-71
2022/08/06 11:24:15;;;;;;;3.05;1.75;;;14.00;81.30;;;;;;4979521;28;20010;-69
2022/08/06 11:26:44;;;;;;;5.13;2.15;;;14.00;81.10;;;;;;4980326;28;20054;-70
2022/08/06 11:29:15;;;;;;;3.58;2.00;;;14.00;81.50;;;;;;4979532;28;20019;-70
2022/08/06 11:31:48;;;;;;;2.75;1.45;;;14.00;82.10;;;;;;4980957;28;20050;-71
2022/08/06 11:34:18;;;;;;;3.58;1.98;;;14.00;82.20;;;;;;4979738;28;20080;-70
2022/08/06 11:37:04;;;;;;;4.53;1.88;;;14.00;82.20;;;;;;4980175;28;20030;-71
2022/08/06 11:40:17;;;;;;;5.05;1.60;;;13.90;82.10;;;;;;4979840;28;20037;-70
2022/08/06 11:42:45;;;;;;;3.63;1.73;;;13.90;82.80;;;;;;4980897;28;20201;-71
2022/08/06 11:45:12;;;;;;;4.00;1.90;;;13.80;83.00;;;;;;4980488;28;20426;-70
2022/08/06 11:48:06;;;;;;;3.80;1.40;;;13.90;83.10;;;;;;4980465;28;20113;-70
2022/08/06 11:50:33;;;;;;;5.07;1.80;;;13.80;83.00;;;;;;4979444;28;20084;-72
2022/08/06 11:53:01;;;;;;;5.10;1.48;;;13.80;82.50;;;;;;4979863;28;20436;-72
2022/08/06 11:55:28;;;;;;;3.47;1.30;;;13.80;83.40;;;;;;4979774;28;20471;-72
2022/08/06 11:58:20;;;;;;;4.75;1.48;;;13.80;82.90;;;;;;4980813;28;20096;-73
2022/08/06 12:01:01;;;;;;;4.75;2.17;;;13.80;83.70;;;;;;4979991;28;20037;-70
2022/08/06 12:03:40;;;;;;;2.58;1.20;;;13.80;83.10;;;;;;4979381;28;20077;-69
2022/08/06 12:06:39;;;;;;;4.25;1.85;;;13.70;83.40;;;;;;4980166;28;20497;-71
2022/08/06 12:09:18;;;;;;;3.60;1.75;;;13.70;83.50;;;;;;4999712;28;20109;-72
2022/08/06 12:11:45;;;;;;;3.05;1.80;;;13.70;83.40;;;;;;4979567;28;20736;-70
2022/08/06 12:14:39;;;;;;;3.40;1.80;;;13.60;83.20;;;;;;4979802;28;20026;-70
2022/08/06 12:17:11;;;;;;;3.58;2.10;;;13.60;83.20;;;;;;4979889;28;20093;-70
2022/08/06 12:19:45;;;;;;;4.17;2.17;;;13.60;83.70;;;;;;4979981;28;20803;-71
2022/08/06 12:22:15;;;;;;;5.30;2.38;;;13.60;83.20;;;;;;4980104;28;20360;-69
2022/08/06 12:24:45;;;;;;;3.22;1.58;;;13.60;83.00;;;;;;4979641;28;20022;-72
2022/08/06 12:27:13;;;;;;;3.58;2.00;;;13.60;83.00;;;;;;4980333;28;20033;-73
2022/08/06 12:29:42;;;;;;;5.00;2.53;;;13.60;83.40;;;;;;4979049;28;20030;-71
2022/08/06 12:32:34;;;;;;;4.15;2.08;;;13.60;83.50;;;;;;4979839;28;21201;-71
2022/08/06 12:35:14;;;;;;;5.57;2.23;;;13.60;83.30;;;;;;4960251;28;20069;-71
2022/08/06 12:37:45;;;;;;;4.72;2.10;;;13.50;83.50;;;;;;4959890;28;20249;-71
2022/08/06 12:40:28;;;;;;;5.63;2.58;;;13.50;84.00;;;;;;4964129;28;20033;-73
2022/08/06 12:43:10;;;;;;;4.53;2.33;;;13.50;84.50;;;;;;4978183;28;20034;-70
2022/08/06 12:45:39;;;;;;;6.03;2.70;;;13.50;84.40;;;;;;4978683;28;20038;-72
2022/08/06 12:48:09;;;;;;;5.00;2.08;;;13.40;84.60;;;;;;4979960;28;20125;-70
2022/08/06 12:50:39;;;;;;;5.22;2.53;;;13.50;84.80;;;;;;4979949;28;20340;-70
2022/08/06 12:53:11;;;;;;;3.95;2.10;;;13.40;85.30;;;;;;4979326;28;20092;-73
2022/08/06 12:55:52;;;;;;;4.82;2.50;;;13.30;85.10;;;;;;4978895;28;20025;-72
2022/08/06 12:58:30;;;;;;;4.88;2.45;;;13.30;85.40;;;;;;4980460;28;20133;-71
2022/08/06 13:01:00;;;;;;;6.75;2.90;;;13.30;85.40;;;;;;4978845;28;20101;-71
2022/08/06 13:03:30;;;;;;;4.10;2.28;;;13.30;85.10;;;;;;4980893;28;20026;-71
2022/08/06 13:06:01;;;;;;;4.50;2.28;;;13.20;85.70;;;;;;4973336;28;20369;-71
2022/08/06 13:08:29;;;;;;;6.53;2.28;;;13.20;85.80;;;;;;4960290;28;20026;-71
2022/08/06 13:10:57;;;;;;;4.63;2.40;;;13.20;87.10;;;;;;4959071;28;20023;-71
2022/08/06 13:13:46;;;;;;;3.45;1.92;;;13.10;86.40;;;;;;4960007;28;20023;-70
2022/08/06 13:16:15;;;;;;;4.80;2.22;;;13.10;86.50;;;;;;4963481;28;20022;-70
2022/08/06 13:19:04;;;;;;;4.28;1.85;;;13.10;86.80;;;;;;4978365;28;20345;-70
2022/08/06 13:21:31;;;;;;;5.65;2.13;;;13.00;87.00;;;;;;4979121;28;20035;-70